Time;durP1;ratioP1;P1;durP2;ratioP2;P2;SDS_P1;SDS_P2;PMS_P1;PMS_P2;Temp;Humidity;BMP_temperature;BMP_pressure;BME280_temperature;BME280_humidity;BME280_pressure;Samples;Min_cycle;Max_cycle;Signal;HPM_P1;HPM_P2
2021/12/29 00:00:00;;;;;;;;;;;;;;;-18.49;64.40;97609.38;6371713;27;19919;-61
2021/12/29 00:03:01;;;;;;;;;;;;;;;-18.51;64.45;97615.06;6371988;27;19923;-61
2021/12/29 00:06:02;;;;;;;;;;;;;;;-18.58;64.33;97609.69;6371333;27;19958;-61
2021/12/29 00:09:05;;;;;;;;;;;;;;;-18.63;64.79;97616.06;6372105;27;20316;-62
2021/12/29 00:12:07;;;;;;;;;;;;;;;-18.72;64.72;97618.03;6372111;27;20447;-62
2021/12/29 00:15:09;;;;;;;;;;;;;;;-18.78;64.80;97622.72;6372033;27;20339;-62
2021/12/29 00:18:12;;;;;;;;;;;;;;;-18.87;65.27;97625.56;6371848;27;19923;-63
2021/12/29 00:21:14;;;;;;;;;;;;;;;-18.95;65.00;97626.72;6371941;27;20044;-62
2021/12/29 00:24:15;;;;;;;;;;;;;;;-19.04;65.20;97632.06;6371338;27;19923;-62
2021/12/29 00:27:18;;;;;;;;;;;;;;;-19.12;65.26;97625.69;6371831;27;19958;-62
2021/12/29 00:30:19;;;;;;;;;;;;;;;-19.12;65.17;97637.38;6371073;28;19923;-61
2021/12/29 00:33:20;;;;;;;;;;;;;;;-19.15;65.37;97637.19;6370508;28;20455;-62
2021/12/29 00:36:25;;;;;;;;;;;;;;;-19.25;65.12;97649.13;6371580;28;19923;-62
2021/12/29 00:39:26;;;;;;;;;;;;;;;-19.37;64.84;97650.88;6371533;28;19923;-62
2021/12/29 00:42:28;;;;;;;;;;;;;;;-19.40;65.25;97652.34;6370891;28;19927;-61
2021/12/29 00:45:32;;;;;;;;;;;;;;;-19.49;65.00;97656.00;6371350;28;20316;-62
2021/12/29 00:48:39;;;;;;;;;;;;;;;-19.53;65.24;97644.06;6371105;28;19923;-62
2021/12/29 00:51:40;;;;;;;;;;;;;;;-19.58;65.16;97655.44;6370847;28;20400;-62
2021/12/29 00:54:42;;;;;;;;;;;;;;;-19.63;65.38;97659.28;6370547;28;19923;-62
2021/12/29 00:57:44;;;;;;;;;;;;;;;-19.72;65.78;97658.72;6370661;28;19949;-61
2021/12/29 01:00:45;;;;;;;;;;;;;;;-19.78;65.68;97656.69;6371379;28;20462;-61
2021/12/29 01:03:48;;;;;;;;;;;;;;;-19.78;65.43;97655.84;6371311;28;19924;-61
2021/12/29 01:06:52;;;;;;;;;;;;;;;-19.84;65.38;97645.41;6370517;28;19930;-62
2021/12/29 01:09:53;;;;;;;;;;;;;;;-19.91;65.34;97658.31;6370432;28;19931;-62
2021/12/29 01:12:59;;;;;;;;;;;;;;;-19.98;65.17;97672.06;6371278;28;20014;-62
2021/12/29 01:19:12;;;;;;;;;;;;;;;-20.09;64.92;97673.88;6373735;27;19923;-62
2021/12/29 01:22:16;;;;;;;;;;;;;;;-20.11;65.17;97672.03;6376096;27;20296;-63
2021/12/29 01:25:21;;;;;;;;;;;;;;;-20.16;64.83;97670.09;6375821;27;19981;-62
2021/12/29 01:28:25;;;;;;;;;;;;;;;-20.20;65.41;97672.31;6375931;27;19931;-62
2021/12/29 01:31:28;;;;;;;;;;;;;;;-20.27;64.64;97683.53;6375664;27;19923;-61
2021/12/29 01:34:29;;;;;;;;;;;;;;;-20.26;65.01;97679.41;6374628;27;19923;-63
2021/12/29 01:37:30;;;;;;;;;;;;;;;-20.09;65.75;97683.91;6374952;27;19923;-62
2021/12/29 01:40:32;;;;;;;;;;;;;;;-20.03;65.02;97693.44;6374653;27;20440;-62
2021/12/29 01:43:35;;;;;;;;;;;;;;;-20.09;64.72;97693.03;6375414;27;20022;-61
2021/12/29 01:46:38;;;;;;;;;;;;;;;-20.15;65.08;97698.53;6375404;27;19924;-62
2021/12/29 01:49:41;;;;;;;;;;;;;;;-20.22;65.36;97702.22;6375377;27;19923;-63
2021/12/29 01:52:42;;;;;;;;;;;;;;;-20.26;64.99;97695.28;6375348;27;19930;-62
2021/12/29 01:55:43;;;;;;;;;;;;;;;-20.31;64.67;97708.28;6375338;27;19930;-62
2021/12/29 01:58:47;;;;;;;;;;;;;;;-20.33;65.20;97697.28;6374693;27;19967;-62
2021/12/29 02:01:48;;;;;;;;;;;;;;;-20.39;65.08;97708.59;6374523;27;19923;-62
2021/12/29 02:04:49;;;;;;;;;;;;;;;-20.45;64.48;97708.19;6373914;27;19957;-61
2021/12/29 02:07:52;;;;;;;;;;;;;;;-20.50;65.10;97713.66;6374477;27;19989;-61
2021/12/29 02:10:56;;;;;;;;;;;;;;;-20.61;64.95;97720.47;6356352;27;19932;-62
2021/12/29 02:14:01;;;;;;;;;;;;;;;-20.70;64.41;97719.84;6373496;27;19923;-62
2021/12/29 02:17:02;;;;;;;;;;;;;;;-20.77;65.03;97717.66;6373688;27;19931;-62
2021/12/29 02:20:04;;;;;;;;;;;;;;;-20.77;64.51;97722.66;6373831;27;19923;-62
2021/12/29 02:23:18;;;;;;;;;;;;;;;-20.75;65.20;97721.16;6374729;27;20434;-62
2021/12/29 02:26:23;;;;;;;;;;;;;;;-20.77;65.15;97733.56;6374641;27;19923;-62
2021/12/29 02:29:26;;;;;;;;;;;;;;;-20.72;64.76;97719.72;6374005;27;20014;-62
2021/12/29 02:32:27;;;;;;;;;;;;;;;-20.67;64.46;97730.06;6373543;27;19930;-62
2021/12/29 02:35:31;;;;;;;;;;;;;;;-20.53;64.78;97733.50;6374341;27;19927;-62
2021/12/29 02:38:35;;;;;;;;;;;;;;;-20.42;65.02;97740.94;6374272;27;20029;-62
2021/12/29 02:41:37;;;;;;;;;;;;;;;-20.36;64.74;97734.63;6373420;27;20016;-63
2021/12/29 02:44:40;;;;;;;;;;;;;;;-20.35;64.50;97738.84;6373965;27;19923;-63
2021/12/29 02:47:44;;;;;;;;;;;;;;;-20.37;64.36;97745.41;6372974;27;19965;-62
2021/12/29 02:50:47;;;;;;;;;;;;;;;-20.39;64.12;97740.28;6373888;27;19919;-63
2021/12/29 02:53:48;;;;;;;;;;;;;;;-20.34;64.24;97745.63;6373622;27;19930;-63
2021/12/29 02:56:54;;;;;;;;;;;;;;;-20.29;64.72;97746.75;6373279;27;19923;-63
2021/12/29 02:59:57;;;;;;;;;;;;;;;-20.31;64.77;97751.69;6373527;27;19919;-62
2021/12/29 03:03:00;;;;;;;;;;;;;;;-20.32;64.10;97754.06;6373048;27;19924;-63
2021/12/29 03:06:01;;;;;;;;;;;;;;;-20.35;64.37;97746.34;6372565;27;19923;-62
2021/12/29 03:09:03;;;;;;;;;;;;;;;-20.35;64.97;97758.88;6373346;27;20004;-62
2021/12/29 03:12:07;;;;;;;;;;;;;;;-20.27;65.03;97762.75;6373326;27;19923;-63
2021/12/29 03:15:08;;;;;;;;;;;;;;;-20.05;64.45;97765.09;6372285;27;19927;-63
2021/12/29 03:18:09;;;;;;;;;;;;;;;-20.06;64.41;97761.72;6372315;27;19923;-62
2021/12/29 03:21:10;;;;;;;;;;;;;;;-20.11;64.08;97768.06;6371976;27;20056;-62
2021/12/29 03:24:12;;;;;;;;;;;;;;;-20.20;64.26;97767.44;6372035;27;20403;-62
2021/12/29 03:27:13;;;;;;;;;;;;;;;-20.25;64.77;97771.25;6371978;27;19923;-62
2021/12/29 03:30:14;;;;;;;;;;;;;;;-20.34;64.93;97770.66;6372144;27;19923;-62
2021/12/29 03:33:15;;;;;;;;;;;;;;;-20.37;65.43;97770.44;6371593;27;19924;-63
2021/12/29 03:36:17;;;;;;;;;;;;;;;-20.47;65.07;97781.44;6371903;27;19924;-63
2021/12/29 03:39:18;;;;;;;;;;;;;;;-20.60;64.67;97777.25;6371398;27;20310;-62
2021/12/29 03:42:19;;;;;;;;;;;;;;;-20.70;65.26;97784.88;6370902;27;19924;-61
2021/12/29 03:45:20;;;;;;;;;;;;;;;-20.79;64.83;97789.25;6371806;27;19930;-62
2021/12/29 03:48:24;;;;;;;;;;;;;;;-20.89;64.33;97785.22;6372541;27;19923;-62
2021/12/29 03:51:25;;;;;;;;;;;;;;;-20.97;64.46;97788.78;6372407;27;19943;-63
2021/12/29 03:54:26;;;;;;;;;;;;;;;-21.07;64.48;97792.28;6372526;27;19931;-63
2021/12/29 03:57:29;;;;;;;;;;;;;;;-21.11;64.23;97795.34;6371219;27;19930;-61
2021/12/29 04:00:33;;;;;;;;;;;;;;;-21.15;64.47;97798.38;6372006;27;20304;-63
2021/12/29 04:03:34;;;;;;;;;;;;;;;-21.27;64.46;97802.50;6371572;27;20068;-62
2021/12/29 04:06:38;;;;;;;;;;;;;;;-21.27;64.70;97807.50;6371930;27;20388;-62
2021/12/29 04:09:39;;;;;;;;;;;;;;;-21.23;65.10;97814.44;6371541;27;19935;-62
2021/12/29 04:12:40;;;;;;;;;;;;;;;-21.17;65.03;97813.28;6371172;27;19923;-63
2021/12/29 04:15:41;;;;;;;;;;;;;;;-21.14;65.23;97816.00;6371791;27;19924;-62
2021/12/29 04:18:55;;;;;;;;;;;;;;;-21.05;65.22;97814.91;6372003;27;19923;-62
2021/12/29 04:21:57;;;;;;;;;;;;;;;-21.05;64.50;97830.78;6371722;27;19923;-63
2021/12/29 04:24:58;;;;;;;;;;;;;;;-21.09;64.75;97832.16;6371837;27;19924;-63
2021/12/29 04:28:00;;;;;;;;;;;;;;;-21.16;64.68;97844.13;6371429;27;20281;-62
2021/12/29 04:31:06;;;;;;;;;;;;;;;-21.24;64.40;97853.56;6370503;27;19923;-62
2021/12/29 04:34:07;;;;;;;;;;;;;;;-21.35;64.78;97856.91;6370637;28;19930;-61
2021/12/29 04:37:08;;;;;;;;;;;;;;;-21.37;65.16;97849.34;6352644;28;20746;-62
2021/12/29 04:40:09;;;;;;;;;;;;;;;-21.27;65.11;97857.47;6370620;28;19931;-62
2021/12/29 04:43:10;;;;;;;;;;;;;;;-21.22;64.39;97856.19;6370527;28;19923;-63
2021/12/29 04:46:15;;;;;;;;;;;;;;;-21.17;64.56;97859.88;6371158;28;19923;-63
2021/12/29 04:49:22;;;;;;;;;;;;;;;-21.11;64.27;97862.84;6370948;28;19923;-62
2021/12/29 04:52:23;;;;;;;;;;;;;;;-21.08;64.61;97861.44;6372717;27;19923;-62
2021/12/29 04:55:25;;;;;;;;;;;;;;;-21.09;63.33;97866.31;6376686;27;19968;-61
2021/12/29 04:58:26;;;;;;;;;;;;;;;-21.06;63.80;97869.03;6376504;27;19927;-62
2021/12/29 05:01:27;;;;;;;;;;;;;;;-20.92;63.62;97873.38;6375798;27;19928;-62
2021/12/29 05:04:34;;;;;;;;;;;;;;;-20.82;63.84;97874.94;6376391;27;20461;-62
2021/12/29 05:11:17;;;;;;;;;;;;;;;-20.63;63.31;97867.97;6272588;28;19929;-62
2021/12/29 05:14:21;;;;;;;;;;;;;;;-20.46;63.56;97866.63;6272780;28;19971;-62
2021/12/29 05:17:22;;;;;;;;;;;;;;;-20.20;62.72;97873.44;6373484;27;20403;-63
2021/12/29 05:20:23;;;;;;;;;;;;;;;-19.99;62.89;97870.69;6375852;27;19923;-62
2021/12/29 05:23:24;;;;;;;;;;;;;;;-19.86;62.69;97877.41;6375960;27;19923;-64
2021/12/29 05:26:27;;;;;;;;;;;;;;;-19.64;62.60;97885.59;6375035;27;19930;-62
2021/12/29 05:29:28;;;;;;;;;;;;;;;-19.34;62.41;97888.41;6374963;27;20385;-62
2021/12/29 05:32:34;;;;;;;;;;;;;;;-18.98;62.64;97886.59;6375882;27;19919;-63
2021/12/29 05:35:35;;;;;;;;;;;;;;;-18.79;62.06;97892.03;6375039;27;19942;-61
2021/12/29 05:38:36;;;;;;;;;;;;;;;-18.69;62.00;97896.81;6374637;27;19926;-62
2021/12/29 05:41:38;;;;;;;;;;;;;;;-18.69;62.20;97891.78;6374759;27;20401;-62
2021/12/29 05:44:42;;;;;;;;;;;;;;;-18.71;62.26;97887.44;6375235;27;19923;-62
2021/12/29 05:47:47;;;;;;;;;;;;;;;-18.59;62.57;97886.59;6375208;27;20022;-62
2021/12/29 05:50:51;;;;;;;;;;;;;;;-18.44;62.09;97888.34;6375189;27;19920;-62
2021/12/29 05:53:52;;;;;;;;;;;;;;;-18.33;61.95;97896.56;6373904;27;19923;-62
2021/12/29 05:56:53;;;;;;;;;;;;;;;-18.20;61.99;97894.03;6373804;27;20312;-63
2021/12/29 05:59:54;;;;;;;;;;;;;;;-18.06;61.88;97902.41;6374984;27;19930;-63
2021/12/29 06:02:56;;;;;;;;;;;;;;;-17.98;62.09;97901.25;6374741;27;20308;-62
2021/12/29 06:05:57;;;;;;;;;;;;;;;-17.86;61.83;97901.13;6373701;27;20052;-62
2021/12/29 06:09:00;;;;;;;;;;;;;;;-17.77;61.58;97905.06;6374530;27;19923;-63
2021/12/29 06:12:01;;;;;;;;;;;;;;;-17.69;62.07;97916.47;6374660;27;19930;-64
2021/12/29 06:15:05;;;;;;;;;;;;;;;-17.63;61.68;97915.97;6374723;27;19923;-63
2021/12/29 06:18:09;;;;;;;;;;;;;;;-17.51;61.72;97915.81;6374514;27;19923;-62
2021/12/29 06:21:16;;;;;;;;;;;;;;;-17.44;61.89;97920.44;6374042;27;19923;-63
2021/12/29 06:24:17;;;;;;;;;;;;;;;-17.37;61.74;97912.50;6373617;27;20304;-62
2021/12/29 06:27:21;;;;;;;;;;;;;;;-17.31;62.05;97912.84;6374450;27;20385;-62
2021/12/29 06:30:22;;;;;;;;;;;;;;;-17.19;62.02;97901.78;6374293;27;19930;-62
2021/12/29 06:33:26;;;;;;;;;;;;;;;-17.10;61.94;97919.91;6373853;27;19923;-62
2021/12/29 06:36:27;;;;;;;;;;;;;;;-17.00;61.85;97902.06;6373896;27;19927;-63
2021/12/29 06:39:28;;;;;;;;;;;;;;;-16.90;61.76;97911.88;6374040;27;19954;-63
2021/12/29 06:42:29;;;;;;;;;;;;;;;-16.82;61.79;97900.59;6374076;27;19928;-64
2021/12/29 06:45:30;;;;;;;;;;;;;;;-16.68;61.46;97910.56;6373835;27;19930;-63
2021/12/29 06:48:34;;;;;;;;;;;;;;;-16.59;61.38;97901.00;6355884;27;19923;-63
2021/12/29 06:51:35;;;;;;;;;;;;;;;-16.52;61.38;97898.06;6373690;27;20385;-62
2021/12/29 06:54:38;;;;;;;;;;;;;;;-16.39;61.48;97894.56;6373192;27;19923;-63
2021/12/29 06:57:39;;;;;;;;;;;;;;;-16.27;61.15;97900.31;6372810;27;20380;-63
2021/12/29 07:00:40;;;;;;;;;;;;;;;-16.15;61.29;97895.06;6372544;27;19920;-61
2021/12/29 07:03:43;;;;;;;;;;;;;;;-16.03;61.34;97899.91;6373355;27;20422;-63
2021/12/29 07:06:45;;;;;;;;;;;;;;;-15.95;61.04;97894.50;6373066;27;19974;-62
2021/12/29 07:09:46;;;;;;;;;;;;;;;-15.84;61.05;97902.66;6354090;27;19930;-63
2021/12/29 07:12:49;;;;;;;;;;;;;;;-15.72;60.84;97912.53;6373001;27;19919;-63
2021/12/29 07:15:50;;;;;;;;;;;;;;;-15.62;61.03;97909.69;6372697;27;20304;-62
2021/12/29 07:18:51;;;;;;;;;;;;;;;-15.47;60.80;97907.97;6372417;27;19930;-62
2021/12/29 07:21:52;;;;;;;;;;;;;;;-15.06;60.96;97899.13;6372175;27;19955;-62
2021/12/29 07:24:54;;;;;;;;;;;;;;;-10.55;58.70;97897.88;6354444;27;19928;-64
2021/12/29 07:27:55;;;;;;;;;;;;;;;-4.64;48.41;97909.59;6372116;27;19924;-66
2021/12/29 07:30:56;;;;;;;;;;;;;;;0.09;38.08;97900.44;6372000;27;19920;-67
2021/12/29 07:33:58;;;;;;;;;;;;;;;3.86;34.30;97900.25;6372668;27;19923;-69
2021/12/29 07:37:02;;;;;;;;;;;;;;;6.72;31.11;97904.66;6372577;27;19919;-69
2021/12/29 07:40:08;;;;;;;;;;;;;;;8.85;29.39;97903.78;6372544;27;19927;-67
2021/12/29 07:43:09;;;;;;;;;;;;;;;10.59;19.41;97910.06;6371434;27;19926;-66
2021/12/29 07:46:12;;;;;;;;;;;;;;;12.03;18.46;97910.59;6372308;27;19946;-65
2021/12/29 07:49:18;;;;;;;;;;;;;;;13.25;15.11;97909.88;6372213;27;19971;-66
2021/12/29 07:52:19;;;;;;;;;;;;;;;14.13;15.02;97901.00;6371604;27;19923;-67
2021/12/29 07:55:22;;;;;;;;;;;;;;;14.84;15.40;97908.91;6372221;27;19923;-66
2021/12/29 07:58:23;;;;;;;;;;;;;;;15.39;18.72;97926.41;6372456;27;19969;-67
2021/12/29 08:01:25;;;;;;;;;;;;;;;15.83;15.65;97925.22;6371741;27;20025;-67
2021/12/29 08:04:26;;;;;;;;;;;;;;;16.29;23.23;97935.25;6371429;27;19923;-66
2021/12/29 08:07:27;;;;;;;;;;;;;;;16.39;20.62;97933.66;6371466;27;19991;-65
2021/12/29 08:10:28;;;;;;;;;;;;;;;16.73;15.79;97931.19;6371294;27;19977;-65
2021/12/29 08:13:29;;;;;;;;;;;;;;;17.00;23.72;97929.19;6371229;27;19923;-65
2021/12/29 08:16:30;;;;;;;;;;;;;;;16.69;16.85;97925.25;6353641;27;19988;-65
2021/12/29 08:19:32;;;;;;;;;;;;;;;16.74;18.65;97922.28;6371645;27;20304;-63
2021/12/29 08:22:35;;;;;;;;;;;;;;;16.87;11.90;97924.88;6371963;27;20013;-64
2021/12/29 08:25:36;;;;;;;;;;;;;;;17.06;16.11;97922.56;6371297;27;20277;-63
2021/12/29 08:28:38;;;;;;;;;;;;;;;16.46;12.16;97924.25;6371382;27;19923;-64
2021/12/29 08:31:39;;;;;;;;;;;;;;;16.40;16.69;97924.72;6371488;27;19923;-64
2021/12/29 08:34:40;;;;;;;;;;;;;;;16.59;12.47;97925.09;6371041;28;19930;-64
2021/12/29 08:37:44;;;;;;;;;;;;;;;17.25;11.77;97932.69;6370580;28;19946;-64
2021/12/29 08:40:51;;;;;;;;;;;;;;;17.44;10.42;97930.34;6371471;28;20026;-64
2021/12/29 08:43:54;;;;;;;;;;;;;;;17.92;9.68;97924.91;6371557;28;19924;-65
2021/12/29 08:46:55;;;;;;;;;;;;;;;18.63;12.11;97937.97;6370468;28;19924;-64
2021/12/29 08:49:56;;;;;;;;;;;;;;;18.99;10.59;97930.59;6370158;28;20339;-67
2021/12/29 08:53:02;;;;;;;;;;;;;;;18.83;10.05;97931.88;6371428;28;19923;-64
2021/12/29 08:56:05;;;;;;;;;;;;;;;18.76;9.97;97932.50;6370753;28;19923;-63
2021/12/29 08:59:06;;;;;;;;;;;;;;;18.87;12.42;97940.47;6371232;28;19923;-63
2021/12/29 09:02:08;;;;;;;;;;;;;;;18.94;9.73;97938.13;6371440;28;19927;-64
2021/12/29 09:05:13;;;;;;;;;;;;;;;18.79;11.49;97918.91;6371305;28;19923;-63
2021/12/29 09:08:14;;;;;;;;;;;;;;;18.45;9.12;97918.09;6370490;28;20019;-64
2021/12/29 09:11:15;;;;;;;;;;;;;;;18.40;11.99;97924.66;6371016;28;20380;-65
2021/12/29 09:14:16;;;;;;;;;;;;;;;18.46;9.45;97930.47;6352267;28;19924;-65
2021/12/29 09:17:17;;;;;;;;;;;;;;;18.67;8.92;97931.38;6370464;28;20039;-64
2021/12/29 09:20:26;;;;;;;;;;;;;;;18.78;8.51;97939.41;6371162;28;19923;-64
2021/12/29 09:23:31;;;;;;;;;;;;;;;18.82;9.11;97942.66;6371203;28;20027;-65
2021/12/29 09:26:37;;;;;;;;;;;;;;;18.64;13.71;97950.31;6370770;28;19923;-63
2021/12/29 09:29:38;;;;;;;;;;;;;;;17.79;15.32;97964.09;6370906;28;19923;-65
2021/12/29 09:32:39;;;;;;;;;;;;;;;15.69;15.53;97964.16;6370058;28;19923;-64
2021/12/29 09:35:46;;;;;;;;;;;;;;;13.74;18.24;97965.16;6352001;28;19923;-64
2021/12/29 09:38:48;;;;;;;;;;;;;;;13.84;13.50;97968.94;6371314;27;19931;-64
2021/12/29 09:41:49;;;;;;;;;;;;;;;14.20;16.01;97983.50;6374881;27;20393;-64
2021/12/29 09:44:51;;;;;;;;;;;;;;;14.42;13.40;97987.47;6374529;27;19923;-66
2021/12/29 09:47:55;;;;;;;;;;;;;;;14.44;11.68;97980.28;6374434;27;20285;-65
2021/12/29 09:50:56;;;;;;;;;;;;;;;14.25;15.59;97985.88;6374458;27;19930;-65
2021/12/29 09:53:57;;;;;;;;;;;;;;;13.83;12.34;97980.47;6356626;27;19931;-64
2021/12/29 09:57:02;;;;;;;;;;;;;;;12.98;17.18;97981.88;6374967;27;19923;-64
2021/12/29 10:00:05;;;;;;;;;;;;;;;12.37;17.79;97977.38;6374273;27;19923;-63
2021/12/29 10:03:07;;;;;;;;;;;;;;;12.32;12.83;97966.22;6374492;27;19940;-65
2021/12/29 10:06:10;;;;;;;;;;;;;;;12.38;15.26;97973.81;6374132;27;20281;-64
2021/12/29 10:09:12;;;;;;;;;;;;;;;12.33;16.69;97978.47;6374462;27;20026;-63
2021/12/29 10:12:20;;;;;;;;;;;;;;;10.02;18.31;97972.28;6374298;27;19923;-64
2021/12/29 10:15:26;;;;;;;;;;;;;;;4.29;21.26;97974.84;6373809;27;20339;-64
2021/12/29 10:18:33;;;;;;;;;;;;;;;-0.78;25.67;97972.34;6374499;27;19976;-63
2021/12/29 10:21:36;;;;;;;;;;;;;;;-3.86;29.40;97978.94;6373696;27;19923;-63
2021/12/29 10:24:40;;;;;;;;;;;;;;;-5.77;31.42;97990.06;6374650;27;20320;-64
2021/12/29 10:27:41;;;;;;;;;;;;;;;-6.68;31.70;97992.59;6355690;27;19923;-64
2021/12/29 10:30:44;;;;;;;;;;;;;;;-7.37;32.91;97985.97;6356194;27;20416;-64
2021/12/29 10:33:49;;;;;;;;;;;;;;;-7.92;33.12;98000.81;6355930;27;19923;-64
2021/12/29 10:37:01;;;;;;;;;;;;;;;-8.43;33.30;97991.00;6373992;27;19923;-66
2021/12/29 10:40:02;;;;;;;;;;;;;;;-8.81;33.21;97996.72;6373418;27;19924;-64
2021/12/29 10:43:04;;;;;;;;;;;;;;;-9.19;33.76;98005.78;6373794;27;19930;-64
2021/12/29 10:46:18;;;;;;;;;;;;;;;-9.47;34.05;98014.25;6373630;27;20396;-64
2021/12/29 10:49:19;;;;;;;;;;;;;;;-9.82;34.59;98010.56;6373770;27;19923;-64
2021/12/29 10:52:31;;;;;;;;;;;;;;;-10.01;33.50;98014.19;6372379;27;19968;-64
2021/12/29 10:55:36;;;;;;;;;;;;;;;-10.20;33.93;98022.84;6373720;27;19931;-65
2021/12/29 10:58:37;;;;;;;;;;;;;;;-10.29;33.86;98023.44;6355053;27;19929;-65
2021/12/29 11:01:40;;;;;;;;;;;;;;;-10.68;34.23;98022.88;6373480;27;19923;-63
2021/12/29 11:04:41;;;;;;;;;;;;;;;-11.05;34.60;98026.59;6372214;27;20309;-64
2021/12/29 11:07:43;;;;;;;;;;;;;;;-11.31;34.88;98029.00;6372776;27;20015;-64
2021/12/29 11:10:45;;;;;;;;;;;;;;;-11.53;34.94;98021.34;6373363;27;20022;-64
2021/12/29 11:13:46;;;;;;;;;;;;;;;-11.70;35.01;98032.50;6373297;27;19924;-64
2021/12/29 11:16:59;;;;;;;;;;;;;;;-11.92;35.23;98031.66;6373072;27;19930;-64
2021/12/29 11:20:00;;;;;;;;;;;;;;;-12.06;35.03;98042.88;6372903;27;19923;-63
2021/12/29 11:23:10;;;;;;;;;;;;;;;-12.21;35.51;98043.13;6373037;27;19924;-64
2021/12/29 11:26:11;;;;;;;;;;;;;;;-12.23;35.85;98052.31;6372182;27;19938;-64
2021/12/29 11:29:13;;;;;;;;;;;;;;;-12.40;35.88;98051.59;6372197;27;19968;-64
2021/12/29 11:32:18;;;;;;;;;;;;;;;-12.52;36.62;98053.59;6372170;27;20004;-64
2021/12/29 11:35:23;;;;;;;;;;;;;;;-12.53;37.16;98054.41;6372030;27;19931;-64
2021/12/29 11:38:27;;;;;;;;;;;;;;;-12.62;38.21;98061.59;6372641;27;19923;-64
2021/12/29 11:41:33;;;;;;;;;;;;;;;-12.98;38.23;98060.00;6372687;27;19923;-64
2021/12/29 11:44:37;;;;;;;;;;;;;;;-13.17;38.90;98058.28;6372502;27;19925;-64
2021/12/29 11:47:38;;;;;;;;;;;;;;;-13.52;39.18;98065.94;6372330;27;19923;-65
2021/12/29 11:50:45;;;;;;;;;;;;;;;-13.80;39.37;98074.72;6372495;27;20327;-66
2021/12/29 11:53:55;;;;;;;;;;;;;;;-13.84;39.52;98070.28;6371493;27;20307;-64
2021/12/29 11:56:56;;;;;;;;;;;;;;;-13.99;40.04;98075.47;6353300;27;19924;-64
2021/12/29 12:00:13;;;;;;;;;;;;;;;-14.11;40.40;98072.34;6372163;27;20445;-64
2021/12/29 12:03:17;;;;;;;;;;;;;;;-14.21;39.62;98073.50;6371360;27;19923;-63
2021/12/29 12:06:21;;;;;;;;;;;;;;;-14.32;39.59;98070.47;6371243;27;20308;-66
2021/12/29 12:09:25;;;;;;;;;;;;;;;-14.51;39.80;98083.81;6371011;27;19924;-64
2021/12/29 12:12:37;;;;;;;;;;;;;;;-14.68;39.64;98074.53;6371317;27;20453;-64
2021/12/29 12:15:42;;;;;;;;;;;;;;;-14.83;40.24;98084.69;6372165;27;19923;-64
2021/12/29 12:18:49;;;;;;;;;;;;;;;-14.99;40.58;98098.16;6371241;27;19920;-64
2021/12/29 12:22:09;;;;;;;;;;;;;;;-14.83;41.70;98107.44;6352930;27;20212;-64
2021/12/29 12:25:11;;;;;;;;;;;;;;;-14.52;43.65;98120.03;6370850;27;19931;-64
2021/12/29 12:28:17;;;;;;;;;;;;;;;-15.24;43.48;98116.13;6371861;27;19930;-65
2021/12/29 12:31:21;;;;;;;;;;;;;;;-15.06;44.71;98116.25;6371878;27;19933;-64
2021/12/29 12:34:22;;;;;;;;;;;;;;;-15.36;44.65;98129.75;6371750;27;19930;-64
2021/12/29 12:37:34;;;;;;;;;;;;;;;-15.78;44.57;98124.03;6370565;28;19935;-65
2021/12/29 12:40:36;;;;;;;;;;;;;;;-16.00;44.64;98127.84;6371500;28;19924;-64
2021/12/29 12:43:57;;;;;;;;;;;;;;;-16.09;44.36;98133.22;6369522;28;19937;-64
2021/12/29 12:47:07;;;;;;;;;;;;;;;-16.19;43.93;98141.03;6371724;28;20007;-66
2021/12/29 12:50:10;;;;;;;;;;;;;;;-16.35;44.44;98146.81;6370803;28;20171;-64
2021/12/29 12:53:13;;;;;;;;;;;;;;;-16.44;45.92;98143.75;6371388;28;20345;-66
2021/12/29 12:56:16;;;;;;;;;;;;;;;-16.52;45.98;98155.00;6371591;28;20009;-65
2021/12/29 12:59:17;;;;;;;;;;;;;;;-16.60;45.04;98146.09;6370681;28;19923;-65
2021/12/29 13:02:19;;;;;;;;;;;;;;;-16.69;46.27;98140.53;6370750;28;19930;-63
2021/12/29 13:05:26;;;;;;;;;;;;;;;-16.76;46.29;98150.19;6370661;28;20022;-63
2021/12/29 13:08:30;;;;;;;;;;;;;;;-16.81;44.88;98156.66;6371231;28;19937;-64
2021/12/29 13:11:32;;;;;;;;;;;;;;;-16.90;44.07;98170.28;6370658;28;19923;-64
2021/12/29 13:14:34;;;;;;;;;;;;;;;-17.06;44.15;98169.34;6372758;27;20422;-64
2021/12/29 13:17:40;;;;;;;;;;;;;;;-17.12;44.07;98173.09;6375652;27;19946;-65
2021/12/29 13:20:43;;;;;;;;;;;;;;;-17.21;44.36;98160.81;6375323;27;19923;-64
2021/12/29 13:23:46;;;;;;;;;;;;;;;-17.24;44.19;98168.19;6375791;27;19929;-64
2021/12/29 13:26:48;;;;;;;;;;;;;;;-17.18;44.08;98162.66;6356642;27;19924;-63
2021/12/29 13:29:56;;;;;;;;;;;;;;;-17.21;44.55;98164.22;6375014;27;19964;-64
2021/12/29 13:32:59;;;;;;;;;;;;;;;-17.23;44.41;98170.81;6374268;27;19946;-64
2021/12/29 13:36:02;;;;;;;;;;;;;;;-17.26;44.58;98173.13;6374751;27;19929;-64
2021/12/29 13:39:03;;;;;;;;;;;;;;;-17.26;45.72;98177.28;6375204;27;19923;-64
2021/12/29 13:42:04;;;;;;;;;;;;;;;-17.26;44.62;98175.66;6374677;27;19923;-64
2021/12/29 13:45:19;;;;;;;;;;;;;;;-17.31;44.78;98182.03;6375380;27;19923;-64
2021/12/29 13:48:25;;;;;;;;;;;;;;;-17.34;45.94;98186.00;6375423;27;20010;-64
2021/12/29 13:51:27;;;;;;;;;;;;;;;-17.36;45.92;98193.44;6374335;27;20320;-65
2021/12/29 13:54:29;;;;;;;;;;;;;;;-17.41;48.42;98189.75;6374894;27;19924;-64
2021/12/29 13:57:33;;;;;;;;;;;;;;;-17.40;46.68;98205.72;6374630;27;19923;-64
2021/12/29 14:00:37;;;;;;;;;;;;;;;-17.37;45.27;98216.84;6374965;27;20503;-64
2021/12/29 14:03:38;;;;;;;;;;;;;;;-17.36;44.89;98206.00;6375119;27;19923;-64
2021/12/29 14:06:39;;;;;;;;;;;;;;;-17.37;45.08;98214.34;6374206;27;19923;-64
2021/12/29 14:09:41;;;;;;;;;;;;;;;-17.29;44.76;98218.22;6374800;27;20011;-63
2021/12/29 14:12:42;;;;;;;;;;;;;;;-17.35;44.47;98220.34;6373891;27;20392;-64
2021/12/29 14:15:45;;;;;;;;;;;;;;;-17.41;44.46;98224.97;6374090;27;19923;-64
2021/12/29 14:18:54;;;;;;;;;;;;;;;-17.52;44.54;98226.81;6374538;27;19923;-65
2021/12/29 14:21:55;;;;;;;;;;;;;;;-17.64;44.65;98222.59;6373744;27;20023;-64
2021/12/29 14:25:04;;;;;;;;;;;;;;;-17.75;44.74;98226.91;6372844;27;19924;-64
2021/12/29 14:28:11;;;;;;;;;;;;;;;-17.82;44.92;98230.69;6374148;27;19930;-65
2021/12/29 14:31:14;;;;;;;;;;;;;;;-17.92;45.21;98233.34;6374649;27;19923;-64
2021/12/29 14:34:16;;;;;;;;;;;;;;;-18.02;45.08;98236.03;6373668;27;19929;-65
2021/12/29 14:37:18;;;;;;;;;;;;;;;-18.13;45.08;98248.75;6373143;27;19923;-64
2021/12/29 14:40:26;;;;;;;;;;;;;;;-18.27;45.03;98244.41;6374030;27;19927;-65
2021/12/29 14:43:30;;;;;;;;;;;;;;;-18.40;45.43;98254.38;6373975;27;19923;-64
2021/12/29 14:46:32;;;;;;;;;;;;;;;-18.49;45.62;98252.09;6373195;27;19942;-65
2021/12/29 14:49:35;;;;;;;;;;;;;;;-18.53;45.71;98259.34;6373033;27;19930;-64
2021/12/29 14:52:42;;;;;;;;;;;;;;;-18.52;45.84;98261.06;6372522;27;19924;-66
2021/12/29 14:55:44;;;;;;;;;;;;;;;-18.52;45.50;98266.09;6372822;27;20308;-65
2021/12/29 14:58:45;;;;;;;;;;;;;;;-18.51;45.88;98267.81;6371725;27;19923;-64
2021/12/29 15:01:46;;;;;;;;;;;;;;;-18.43;45.69;98266.72;6373754;27;20325;-65
2021/12/29 15:04:58;;;;;;;;;;;;;;;-18.43;45.89;98276.78;6373660;27;19927;-65
2021/12/29 15:07:59;;;;;;;;;;;;;;;-18.36;45.41;98278.94;6372579;27;20359;-65
2021/12/29 15:11:00;;;;;;;;;;;;;;;-18.24;45.83;98277.28;6372142;27;19930;-65
2021/12/29 15:14:10;;;;;;;;;;;;;;;-18.07;45.64;98272.53;6372412;27;19923;-64
2021/12/29 15:17:12;;;;;;;;;;;;;;;-18.09;45.49;98276.59;6372595;27;19930;-65
2021/12/29 15:20:13;;;;;;;;;;;;;;;-18.33;45.12;98288.34;6372920;27;19923;-64
2021/12/29 15:23:16;;;;;;;;;;;;;;;-18.54;45.51;98297.75;6372591;27;19923;-65
2021/12/29 15:26:21;;;;;;;;;;;;;;;-18.72;45.65;98293.19;6372474;27;19924;-65
2021/12/29 15:29:24;;;;;;;;;;;;;;;-18.86;46.06;98284.69;6373118;27;19930;-66
2021/12/29 15:32:25;;;;;;;;;;;;;;;-18.92;46.99;98285.91;6371748;27;19930;-64
2021/12/29 15:35:32;;;;;;;;;;;;;;;-18.83;47.16;98279.91;6373185;27;19927;-63
2021/12/29 15:38:33;;;;;;;;;;;;;;;-18.68;46.62;98287.63;6371512;27;19924;-63
2021/12/29 15:41:36;;;;;;;;;;;;;;;-18.63;46.96;98288.78;6353904;27;19931;-64
2021/12/29 15:44:37;;;;;;;;;;;;;;;-18.77;46.96;98293.66;6354142;27;19924;-63
2021/12/29 15:47:39;;;;;;;;;;;;;;;-18.91;47.09;98290.16;6372265;27;19923;-63
2021/12/29 15:50:44;;;;;;;;;;;;;;;-18.95;48.27;98289.06;6371681;27;19930;-64